Time;durP1;ratioP1;P1;durP2;ratioP2;P2;SDS_P1;SDS_P2;PMS_P1;PMS_P2;Temp;Humidity;BMP_temperature;BMP_pressure;BME280_temperature;BME280_humidity;BME280_pressure;Samples;Min_cycle;Max_cycle;Signal;HPM_P1;HPM_P2
2023/01/14 00:01:34;;;;;;;9.30;2.13;;;8.30;99.90;;;;;;5093512;28;20201;-77
2023/01/14 00:04:00;;;;;;;11.43;3.57;;;8.20;99.90;;;;;;5093978;28;20288;-77
2023/01/14 00:06:29;;;;;;;18.40;3.23;;;8.30;99.90;;;;;;5093120;28;20427;-77
2023/01/14 00:08:59;;;;;;;11.97;2.80;;;8.20;99.90;;;;;;5087600;28;20408;-78
2023/01/14 00:14:11;;;;;;;9.80;2.67;;;8.30;99.90;;;;;;5078458;28;20513;-77
2023/01/14 00:16:36;;;;;;;6.87;2.77;;;8.30;99.90;;;;;;5077720;28;20866;-77
2023/01/14 00:19:02;;;;;;;17.83;2.53;;;8.20;99.90;;;;;;5078192;28;20400;-77
2023/01/14 00:21:28;;;;;;;8.60;3.47;;;8.20;99.90;;;;;;5076866;28;20175;-77
2023/01/14 00:23:54;;;;;;;8.43;2.80;;;8.20;99.90;;;;;;5076701;28;20442;-77
2023/01/14 00:26:20;;;;;;;9.00;2.50;;;8.20;99.90;;;;;;5077406;28;20174;-77
2023/01/14 00:28:47;;;;;;;16.23;3.00;;;8.20;99.90;;;;;;5077290;28;20166;-77
2023/01/14 00:31:16;;;;;;;11.00;2.80;;;8.20;99.90;;;;;;5076257;28;20205;-77
2023/01/14 00:33:42;;;;;;;10.10;2.77;;;8.20;99.90;;;;;;5095345;28;20450;-77
2023/01/14 00:36:10;;;;;;;10.30;2.80;;;8.10;99.90;;;;;;5097131;28;20395;-77
2023/01/14 00:38:36;;;;;;;11.13;2.53;;;8.10;99.90;;;;;;5095784;28;20185;-77
2023/01/14 00:41:13;;;;;;;13.83;3.30;;;8.00;99.90;;;;;;5082319;28;20936;-77
2023/01/14 00:43:43;;;;;;;10.90;3.13;;;7.90;99.90;;;;;;5075464;28;20455;-77
2023/01/14 00:46:11;;;;;;;10.13;2.63;;;8.00;99.90;;;;;;5076759;28;20404;-77
2023/01/14 00:48:37;;;;;;;11.57;3.17;;;8.00;99.90;;;;;;5076518;28;20902;-77
2023/01/14 00:51:03;;;;;;;4.43;2.60;;;8.00;99.90;;;;;;5090376;28;20418;-77
2023/01/14 00:53:30;;;;;;;5.27;2.23;;;8.00;99.90;;;;;;5095313;28;20177;-77
2023/01/14 00:55:56;;;;;;;8.70;2.80;;;8.00;99.90;;;;;;5095700;28;20483;-77
2023/01/14 00:58:21;;;;;;;6.00;2.40;;;8.00;99.90;;;;;;5094804;28;20489;-77
2023/01/14 01:00:47;;;;;;;9.90;2.90;;;8.10;99.90;;;;;;5080821;28;20428;-77
2023/01/14 01:03:13;;;;;;;16.10;3.63;;;8.10;99.90;;;;;;5075461;28;20737;-77
2023/01/14 01:05:39;;;;;;;5.00;2.40;;;8.10;99.90;;;;;;5075235;28;20424;-77
2023/01/14 01:08:06;;;;;;;8.80;3.47;;;8.10;99.90;;;;;;5074078;28;20463;-77
2023/01/14 01:10:34;;;;;;;4.20;2.50;;;8.10;99.90;;;;;;5087250;28;20506;-77
2023/01/14 01:13:01;;;;;;;6.60;2.00;;;8.20;99.90;;;;;;5095050;28;20511;-77
2023/01/14 01:15:26;;;;;;;7.53;2.40;;;8.30;99.90;;;;;;5094639;28;20472;-77
2023/01/14 01:17:52;;;;;;;6.73;1.77;;;8.30;99.90;;;;;;5096339;28;20435;-77
2023/01/14 01:20:18;;;;;;;9.80;2.83;;;8.30;99.90;;;;;;5095323;28;20169;-77
2023/01/14 01:22:43;;;;;;;13.07;3.47;;;8.30;99.90;;;;;;5082468;28;20193;-78
2023/01/14 01:25:09;;;;;;;17.73;4.23;;;8.40;99.90;;;;;;5074603;28;20223;-77
2023/01/14 01:27:34;;;;;;;13.33;3.87;;;8.40;99.90;;;;;;5075827;28;20197;-77
2023/01/14 01:30:00;;;;;;;7.50;2.27;;;8.50;99.90;;;;;;5074581;28;20163;-77
2023/01/14 01:32:26;;;;;;;13.37;2.80;;;8.40;99.90;;;;;;5074683;28;20170;-77
2023/01/14 01:34:51;;;;;;;6.47;2.60;;;8.50;99.90;;;;;;5087617;28;20170;-77
2023/01/14 01:37:17;;;;;;;6.60;2.63;;;8.40;99.90;;;;;;5095537;28;20431;-77
2023/01/14 01:39:42;;;;;;;12.03;2.97;;;8.40;99.90;;;;;;5080277;28;20193;-78
2023/01/14 01:42:19;;;;;;;11.87;4.20;;;8.40;99.90;;;;;;5076464;28;20194;-78
2023/01/14 01:44:48;;;;;;;4.33;2.80;;;8.50;99.90;;;;;;5088367;28;20200;-78
2023/01/14 01:47:18;;;;;;;12.03;2.60;;;8.40;99.90;;;;;;5074320;28;20771;-78
2023/01/14 01:49:45;;;;;;;6.20;2.60;;;8.40;99.90;;;;;;5074736;28;20408;-78
2023/01/14 01:52:20;;;;;;;5.80;2.87;;;8.40;99.90;;;;;;5074862;28;20409;-77
2023/01/14 01:54:54;;;;;;;7.97;2.90;;;8.50;99.90;;;;;;5107653;28;20437;-78
2023/01/14 01:57:19;;;;;;;8.40;3.03;;;8.50;99.90;;;;;;5085862;28;20436;-78
2023/01/14 01:59:54;;;;;;;6.70;1.90;;;8.50;99.90;;;;;;5081637;28;20427;-78
2023/01/14 02:02:21;;;;;;;9.63;3.17;;;8.50;99.90;;;;;;5074298;28;20455;-78
2023/01/14 02:04:46;;;;;;;15.40;4.57;;;8.40;99.90;;;;;;5089996;28;20425;-78
2023/01/14 02:07:16;;;;;;;12.93;1.93;;;8.40;99.90;;;;;;5074135;28;20443;-77
2023/01/14 02:09:42;;;;;;;12.17;3.73;;;8.40;99.90;;;;;;5075768;28;20607;-78
2023/01/14 02:12:22;;;;;;;9.83;3.23;;;8.30;99.90;;;;;;5090122;28;20419;-77
2023/01/14 02:15:17;;;;;;;7.50;2.83;;;8.30;99.90;;;;;;5089503;28;20196;-78
2023/01/14 02:17:58;;;;;;;12.87;2.43;;;8.20;99.90;;;;;;5056931;28;20444;-77
2023/01/14 02:20:40;;;;;;;10.37;2.70;;;8.20;99.90;;;;;;5073224;28;20514;-78
2023/01/14 02:23:27;;;;;;;12.97;3.37;;;8.20;99.90;;;;;;5104638;28;20872;-77
2023/01/14 02:26:10;;;;;;;11.17;2.83;;;8.30;99.90;;;;;;5085835;28;20415;-78
2023/01/14 02:29:20;;;;;;;8.63;3.10;;;8.20;99.90;;;;;;5089632;28;20420;-78
2023/01/14 02:32:06;;;;;;;11.20;2.90;;;8.20;99.90;;;;;;5098799;28;20815;-78
2023/01/14 02:35:11;;;;;;;10.50;3.23;;;8.10;99.90;;;;;;5074253;28;20435;-78
2023/01/14 02:38:09;;;;;;;12.10;2.50;;;8.00;99.90;;;;;;5075269;28;20424;-78
2023/01/14 02:40:47;;;;;;;6.27;2.30;;;7.90;99.90;;;;;;5075460;28;20401;-78
2023/01/14 02:46:30;;;;;;;21.90;3.13;;;7.70;99.90;;;;;;5074803;28;20775;-77
2023/01/14 02:48:58;;;;;;;7.80;2.27;;;7.80;99.90;;;;;;5075263;28;20408;-77
2023/01/14 02:51:24;;;;;;;14.53;2.10;;;7.80;99.90;;;;;;5074244;28;20500;-78
2023/01/14 02:53:50;;;;;;;10.43;2.40;;;7.80;99.90;;;;;;5087045;28;20524;-78
2023/01/14 02:56:16;;;;;;;4.87;2.80;;;7.70;99.90;;;;;;5094873;28;20445;-78
2023/01/14 02:59:05;;;;;;;7.67;3.17;;;7.60;99.90;;;;;;5095574;28;20253;-78
2023/01/14 03:01:52;;;;;;;15.37;2.20;;;7.60;99.90;;;;;;5094500;28;20408;-78
2023/01/14 03:04:30;;;;;;;10.27;2.30;;;7.50;99.90;;;;;;5094660;28;20597;-78
2023/01/14 03:07:05;;;;;;;10.97;2.93;;;7.40;99.90;;;;;;5075190;28;20470;-77
2023/01/14 03:09:46;;;;;;;9.80;2.97;;;7.40;99.90;;;;;;5073633;28;20404;-77
2023/01/14 03:12:43;;;;;;;4.60;2.30;;;7.40;99.90;;;;;;5074290;28;20428;-78
2023/01/14 03:15:21;;;;;;;5.23;2.10;;;7.20;99.90;;;;;;5075047;28;20882;-77
2023/01/14 03:17:57;;;;;;;15.67;2.87;;;7.20;99.90;;;;;;5074307;28;20444;-78
2023/01/14 03:20:31;;;;;;;5.50;2.70;;;7.20;99.90;;;;;;5074755;28;20422;-77
2023/01/14 03:23:02;;;;;;;9.37;2.37;;;7.20;99.90;;;;;;5074997;28;20456;-78
2023/01/14 03:25:30;;;;;;;5.97;2.20;;;7.10;99.90;;;;;;5074483;28;20743;-78
2023/01/14 03:27:58;;;;;;;16.43;2.73;;;7.20;99.90;;;;;;5074615;28;20434;-78
2023/01/14 03:30:31;;;;;;;8.10;2.57;;;7.10;99.90;;;;;;5092726;28;20424;-78
2023/01/14 03:33:03;;;;;;;12.83;2.67;;;7.20;99.90;;;;;;5093920;28;20438;-77
2023/01/14 03:35:39;;;;;;;4.70;2.60;;;7.20;99.90;;;;;;5093643;28;20488;-78
2023/01/14 03:38:25;;;;;;;12.73;2.03;;;7.20;99.90;;;;;;5092637;28;20551;-78
2023/01/14 03:40:53;;;;;;;8.10;2.47;;;7.20;99.90;;;;;;5088233;28;20432;-78
2023/01/14 03:43:31;;;;;;;11.40;2.90;;;7.20;99.90;;;;;;5074673;28;20969;-77
2023/01/14 03:45:57;;;;;;;4.70;2.07;;;7.30;99.90;;;;;;5076071;28;20507;-77
2023/01/14 03:48:23;;;;;;;8.53;2.63;;;7.30;99.90;;;;;;5094074;28;20477;-78
2023/01/14 03:50:52;;;;;;;8.07;2.07;;;7.30;99.90;;;;;;5078345;28;20416;-78
2023/01/14 03:54:00;;;;;;;8.03;2.60;;;7.40;99.90;;;;;;5077581;28;20861;-77
2023/01/14 03:56:40;;;;;;;6.90;2.30;;;7.40;99.90;;;;;;5066525;28;21233;-78
2023/01/14 03:59:26;;;;;;;8.10;2.00;;;7.40;99.90;;;;;;5085231;28;20419;-78
2023/01/14 04:01:54;;;;;;;17.53;2.50;;;7.40;99.90;;;;;;5097579;28;20838;-78
2023/01/14 04:04:22;;;;;;;8.37;2.00;;;7.50;99.90;;;;;;5097178;28;20485;-78
2023/01/14 04:06:47;;;;;;;12.33;2.77;;;7.50;99.90;;;;;;5097175;28;20832;-77
2023/01/14 04:09:13;;;;;;;11.30;2.47;;;7.50;99.90;;;;;;5094705;28;20438;-77
2023/01/14 04:11:39;;;;;;;8.13;1.47;;;7.60;99.90;;;;;;5092439;28;20185;-78
2023/01/14 04:16:49;;;;;;;7.20;1.97;;;7.50;99.90;;;;;;5097786;28;20446;-77
2023/01/14 04:19:14;;;;;;;5.50;2.40;;;7.60;99.90;;;;;;5097850;28;20399;-78
2023/01/14 04:21:40;;;;;;;2.03;1.50;;;7.50;99.90;;;;;;5097812;28;20170;-77
2023/01/14 04:24:06;;;;;;;7.37;2.20;;;7.60;99.90;;;;;;5081389;28;20174;-77
2023/01/14 04:26:31;;;;;;;15.03;2.23;;;7.60;99.90;;;;;;5075907;28;20197;-78
2023/01/14 04:28:57;;;;;;;5.40;2.43;;;7.60;99.90;;;;;;5077150;28;20170;-78
2023/01/14 04:31:23;;;;;;;9.93;2.07;;;7.60;99.90;;;;;;5076336;28;20170;-78
2023/01/14 04:33:49;;;;;;;3.10;1.70;;;7.60;99.90;;;;;;5090477;28;20201;-78
2023/01/14 04:36:14;;;;;;;10.30;2.13;;;7.60;99.90;;;;;;5083153;28;20174;-77
2023/01/14 04:38:40;;;;;;;9.07;2.30;;;7.60;99.90;;;;;;5077064;28;20273;-77
2023/01/14 04:41:06;;;;;;;6.43;1.70;;;7.60;99.90;;;;;;5075959;28;20420;-77
2023/01/14 04:43:31;;;;;;;6.67;2.23;;;7.60;99.90;;;;;;5077286;28;20197;-78
2023/01/14 04:45:57;;;;;;;4.70;2.47;;;7.50;99.90;;;;;;5076202;28;20178;-78
2023/01/14 04:48:24;;;;;;;7.00;2.93;;;7.60;99.90;;;;;;5075868;28;20214;-78
2023/01/14 04:50:50;;;;;;;6.33;2.00;;;7.50;99.90;;;;;;5076223;28;20193;-78
2023/01/14 04:53:19;;;;;;;15.10;3.37;;;7.50;99.90;;;;;;5076319;28;20416;-77
2023/01/14 04:55:45;;;;;;;19.43;2.20;;;7.50;99.90;;;;;;5082452;28;20506;-78
2023/01/14 04:58:13;;;;;;;10.20;2.73;;;7.50;99.90;;;;;;5090022;28;20440;-78
2023/01/14 05:00:39;;;;;;;6.97;3.20;;;7.50;99.90;;;;;;5097190;28;20791;-77
2023/01/14 05:03:07;;;;;;;4.47;1.87;;;7.50;99.90;;;;;;5096357;28;20466;-78
2023/01/14 05:05:34;;;;;;;7.87;1.37;;;7.40;99.90;;;;;;5090405;28;20413;-77
2023/01/14 05:08:02;;;;;;;7.07;2.00;;;7.40;99.90;;;;;;5085505;28;20458;-78
2023/01/14 05:10:27;;;;;;;12.70;2.77;;;7.40;99.90;;;;;;5095932;28;20415;-77
2023/01/14 05:12:56;;;;;;;9.17;1.93;;;7.40;99.90;;;;;;5095918;28;20416;-77
2023/01/14 05:15:27;;;;;;;7.93;2.80;;;7.30;99.90;;;;;;5092384;28;20224;-78
2023/01/14 05:17:53;;;;;;;5.80;1.93;;;7.20;99.90;;;;;;5075518;28;20535;-77
2023/01/14 05:20:20;;;;;;;12.23;2.47;;;7.20;99.90;;;;;;5076591;28;20420;-78
2023/01/14 05:22:46;;;;;;;11.60;2.30;;;7.20;99.90;;;;;;5075255;28;20452;-77
2023/01/14 05:25:11;;;;;;;7.73;2.17;;;7.20;99.90;;;;;;5078686;28;20814;-77
2023/01/14 05:27:37;;;;;;;7.03;2.30;;;7.30;99.90;;;;;;5096035;28;20428;-78
2023/01/14 05:30:04;;;;;;;6.10;2.23;;;7.30;99.90;;;;;;5096228;28;20174;-77
2023/01/14 05:32:29;;;;;;;3.77;1.60;;;7.30;99.90;;;;;;5094687;28;20619;-77
2023/01/14 05:34:55;;;;;;;6.63;2.00;;;7.40;99.90;;;;;;5095198;28;20443;-78
2023/01/14 05:37:21;;;;;;;9.43;2.17;;;7.30;99.90;;;;;;5090755;28;20202;-77
2023/01/14 05:39:46;;;;;;;15.60;2.33;;;7.30;99.90;;;;;;5075852;28;20178;-78
2023/01/14 05:47:40;;;;;;;6.73;2.17;;;7.30;99.90;;;;;;5075443;28;20443;-78
2023/01/14 05:50:06;;;;;;;4.13;1.50;;;7.40;99.90;;;;;;5075621;28;20886;-77
2023/01/14 05:52:32;;;;;;;7.83;1.83;;;7.40;99.90;;;;;;5075265;28;20257;-77
2023/01/14 05:54:57;;;;;;;6.37;1.83;;;7.40;99.90;;;;;;5074903;28;20440;-77
2023/01/14 05:57:23;;;;;;;4.93;1.83;;;7.50;99.90;;;;;;5074504;28;20578;-78
2023/01/14 05:59:48;;;;;;;5.87;2.07;;;7.50;99.90;;;;;;5075262;28;20261;-77
2023/01/14 06:07:56;;;;;;;3.73;1.27;;;7.60;99.90;;;;;;5061966;28;20423;-77
2023/01/14 06:10:25;;;;;;;9.10;1.93;;;7.60;99.90;;;;;;5094730;28;20412;-78
2023/01/14 06:12:57;;;;;;;3.20;1.50;;;7.70;99.90;;;;;;5093259;28;20403;-78
2023/01/14 06:15:36;;;;;;;7.47;1.70;;;7.80;99.90;;;;;;5074517;28;20492;-78
2023/01/14 06:18:09;;;;;;;6.20;1.40;;;7.90;99.90;;;;;;5074704;28;20812;-78
2023/01/14 06:20:38;;;;;;;6.50;1.70;;;7.90;99.90;;;;;;5074631;28;20957;-78
2023/01/14 06:23:05;;;;;;;4.50;2.07;;;7.80;99.90;;;;;;5073350;28;20514;-78
2023/01/14 06:25:31;;;;;;;3.47;1.50;;;7.90;99.90;;;;;;5073474;28;20484;-78
2023/01/14 06:27:59;;;;;;;5.87;2.00;;;7.90;99.90;;;;;;5073621;28;20448;-78
2023/01/14 06:30:25;;;;;;;16.03;2.30;;;7.90;99.90;;;;;;5073108;28;20503;-78
2023/01/14 06:32:50;;;;;;;3.27;1.70;;;7.90;99.90;;;;;;5074214;28;20467;-78
2023/01/14 06:35:16;;;;;;;5.57;1.70;;;7.90;99.90;;;;;;5072426;28;20548;-78
2023/01/14 06:37:45;;;;;;;7.80;1.50;;;8.00;99.90;;;;;;5072563;28;20206;-77
2023/01/14 06:40:11;;;;;;;7.43;1.40;;;8.10;99.90;;;;;;5072979;28;20184;-79
2023/01/14 06:42:37;;;;;;;10.00;1.77;;;8.00;99.90;;;;;;5082502;28;20508;-78
2023/01/14 06:45:03;;;;;;;5.63;1.80;;;8.10;99.90;;;;;;5094117;28;20486;-78
2023/01/14 06:47:29;;;;;;;8.43;2.73;;;8.10;99.90;;;;;;5094034;28;20423;-78
2023/01/14 06:49:54;;;;;;;7.20;1.60;;;8.10;99.90;;;;;;5092800;28;20829;-78
2023/01/14 06:52:21;;;;;;;9.63;2.43;;;8.20;99.90;;;;;;5087828;28;20182;-77
2023/01/14 06:54:47;;;;;;;5.90;1.67;;;8.10;99.90;;;;;;5072273;28;20177;-78
2023/01/14 06:57:13;;;;;;;5.63;1.30;;;8.10;99.90;;;;;;5074715;28;20432;-78
2023/01/14 06:59:38;;;;;;;5.70;1.57;;;8.10;99.90;;;;;;5073572;28;20408;-78
2023/01/14 07:02:04;;;;;;;5.33;1.63;;;8.00;99.90;;;;;;5073217;28;20788;-78
2023/01/14 07:04:29;;;;;;;5.73;1.70;;;8.10;99.90;;;;;;5081909;28;20166;-78
2023/01/14 07:06:55;;;;;;;8.23;1.50;;;8.10;99.90;;;;;;5093436;28;20667;-78
2023/01/14 07:09:21;;;;;;;6.60;2.23;;;8.10;99.90;;;;;;5094175;28;20169;-78
2023/01/14 07:11:47;;;;;;;4.70;2.07;;;8.30;99.90;;;;;;5093114;28;20623;-78
2023/01/14 07:14:12;;;;;;;7.50;3.70;;;8.20;99.90;;;;;;5073718;28;20165;-78
2023/01/14 07:16:38;;;;;;;8.30;2.43;;;8.30;99.90;;;;;;5072387;28;20432;-78
2023/01/14 07:19:03;;;;;;;6.23;2.43;;;8.30;99.90;;;;;;5071527;28;20216;-78
2023/01/14 07:21:29;;;;;;;10.30;1.50;;;8.30;99.90;;;;;;5072286;28;20728;-78
2023/01/14 07:23:54;;;;;;;5.13;2.00;;;8.10;99.90;;;;;;5090734;28;20643;-78
2023/01/14 07:26:20;;;;;;;11.37;3.00;;;8.00;99.90;;;;;;5093105;28;20184;-78
2023/01/14 07:28:45;;;;;;;7.20;1.40;;;7.90;99.90;;;;;;5093576;28;20713;-78
2023/01/14 07:31:11;;;;;;;8.90;1.80;;;7.80;99.90;;;;;;5093762;28;20232;-78
2023/01/14 07:33:36;;;;;;;4.47;1.80;;;7.80;99.90;;;;;;5078770;28;20711;-78
2023/01/14 07:36:02;;;;;;;6.40;2.40;;;7.60;99.90;;;;;;5074486;28;20666;-78
2023/01/14 07:38:28;;;;;;;8.20;2.13;;;7.60;99.90;;;;;;5072986;28;20330;-77
2023/01/14 07:40:54;;;;;;;10.13;2.67;;;7.50;99.90;;;;;;5074198;28;20427;-78
2023/01/14 07:43:20;;;;;;;2.43;1.87;;;7.40;99.90;;;;;;5091101;28;20189;-78
2023/01/14 07:45:46;;;;;;;7.30;2.10;;;7.50;99.90;;;;;;5094219;28;20419;-78
2023/01/14 07:48:12;;;;;;;7.27;2.27;;;7.50;99.90;;;;;;5094157;28;20689;-77
2023/01/14 07:50:37;;;;;;;6.47;1.80;;;7.40;99.90;;;;;;5094679;28;20173;-78
2023/01/14 07:53:03;;;;;;;5.67;2.00;;;7.40;99.90;;;;;;5080523;28;20511;-78
2023/01/14 07:55:28;;;;;;;6.40;2.07;;;7.40;99.90;;;;;;5074103;28;20181;-78
2023/01/14 07:57:54;;;;;;;7.83;2.30;;;7.40;99.90;;;;;;5073599;28;20193;-78
2023/01/14 08:00:21;;;;;;;17.50;2.07;;;7.40;99.90;;;;;;5074536;28;20174;-78
2023/01/14 08:02:46;;;;;;;12.37;2.20;;;7.30;99.90;;;;;;5085458;28;20488;-78
2023/01/14 08:05:12;;;;;;;11.83;2.30;;;7.40;99.90;;;;;;5094049;28;20407;-77
2023/01/14 08:07:38;;;;;;;8.37;3.30;;;7.40;99.90;;;;;;5094175;28;20689;-77
2023/01/14 08:10:05;;;;;;;9.97;2.73;;;7.40;99.90;;;;;;5094374;28;20404;-78
2023/01/14 08:12:32;;;;;;;7.63;1.73;;;7.50;99.90;;;;;;5089604;28;20710;-78
2023/01/14 08:15:01;;;;;;;4.33;1.87;;;7.50;99.90;;;;;;5072505;28;20499;-78
2023/01/14 08:17:27;;;;;;;8.83;2.33;;;7.60;99.90;;;;;;5072951;28;20427;-78
2023/01/14 08:19:52;;;;;;;7.13;1.80;;;7.70;99.90;;;;;;5074536;28;20413;-78
2023/01/14 08:22:18;;;;;;;5.30;1.80;;;7.70;99.90;;;;;;5073794;28;20660;-78
2023/01/14 08:24:43;;;;;;;10.03;2.63;;;7.80;99.90;;;;;;5082271;28;20174;-78
2023/01/14 08:27:09;;;;;;;3.30;1.30;;;7.80;99.90;;;;;;5092758;28;20235;-78
2023/01/14 08:29:34;;;;;;;4.13;1.80;;;7.90;99.90;;;;;;5094346;28;20162;-78
2023/01/14 08:32:00;;;;;;;18.73;1.57;;;7.90;99.90;;;;;;5096383;28;20180;-78
2023/01/14 08:34:27;;;;;;;3.77;1.20;;;8.00;99.90;;;;;;5097014;28;20173;-78
2023/01/14 08:36:53;;;;;;;5.80;2.00;;;8.00;99.90;;;;;;5088193;28;20202;-78
2023/01/14 08:39:19;;;;;;;3.20;1.27;;;8.10;99.90;;;;;;5076449;28;20416;-78
2023/01/14 08:41:44;;;;;;;1.30;1.00;;;8.20;99.90;;;;;;5076533;28;20162;-78
2023/01/14 08:44:10;;;;;;;4.23;1.20;;;8.30;99.90;;;;;;5076746;28;20162;-78
2023/01/14 08:46:37;;;;;;;3.97;1.27;;;8.40;99.90;;;;;;5075363;28;20181;-78
2023/01/14 08:49:03;;;;;;;3.53;1.17;;;8.40;99.90;;;;;;5081556;28;20409;-78
2023/01/14 08:51:30;;;;;;;3.90;1.40;;;8.40;99.90;;;;;;5074703;28;20409;-78
2023/01/14 08:53:56;;;;;;;2.07;1.00;;;8.50;99.90;;;;;;5074110;28;20902;-78
2023/01/14 08:56:22;;;;;;;2.53;1.20;;;8.60;99.90;;;;;;5075505;28;20492;-78
2023/01/14 08:58:48;;;;;;;1.07;0.60;;;8.60;99.90;;;;;;5076015;28;20409;-78
2023/01/14 09:01:14;;;;;;;3.53;1.30;;;8.70;99.90;;;;;;5090390;28;20174;-78
2023/01/14 09:03:40;;;;;;;2.90;0.90;;;8.80;99.90;;;;;;5094580;28;20246;-78
2023/01/14 09:06:08;;;;;;;6.63;1.37;;;8.90;99.90;;;;;;5095483;28;20182;-78
2023/01/14 09:17:06;;;;;;;1.50;0.67;;;9.00;99.90;;;;;;5076169;28;20424;-78
2023/01/14 09:19:36;;;;;;;2.67;1.13;;;9.10;99.90;;;;;;5075477;28;20412;-79
2023/01/14 09:22:02;;;;;;;1.97;0.80;;;9.00;99.90;;;;;;5076424;28;20444;-78
2023/01/14 09:24:28;;;;;;;1.57;0.80;;;9.10;99.90;;;;;;5074816;28;20408;-78
2023/01/14 09:26:53;;;;;;;1.30;0.80;;;9.10;99.90;;;;;;5074757;28;20490;-78
2023/01/14 09:29:19;;;;;;;1.67;0.77;;;9.00;99.90;;;;;;5082315;28;20184;-78
2023/01/14 09:31:44;;;;;;;1.87;0.93;;;9.20;99.90;;;;;;5098237;28;20192;-78
2023/01/14 09:34:10;;;;;;;3.77;1.00;;;9.20;99.90;;;;;;5097061;28;20234;-78
2023/01/14 09:36:35;;;;;;;2.17;0.63;;;9.20;99.90;;;;;;5097842;28;20613;-78
2023/01/14 09:39:01;;;;;;;1.23;0.77;;;9.20;99.90;;;;;;5097018;28;20268;-78
2023/01/14 09:41:31;;;;;;;1.47;0.60;;;9.20;99.90;;;;;;5089209;28;20219;-78
2023/01/14 09:43:58;;;;;;;2.20;0.80;;;9.30;99.90;;;;;;5109719;28;20735;-78
2023/01/14 09:46:26;;;;;;;2.03;0.70;;;9.30;99.90;;;;;;5078356;28;20766;-78
2023/01/14 09:48:55;;;;;;;1.53;0.73;;;9.30;99.90;;;;;;5077679;28;20919;-78
2023/01/14 09:51:45;;;;;;;1.57;0.73;;;9.40;99.90;;;;;;5078500;28;20495;-78
2023/01/14 09:54:35;;;;;;;3.47;0.87;;;9.40;99.90;;;;;;5077305;28;20416;-78
2023/01/14 09:57:03;;;;;;;1.60;0.90;;;9.40;99.90;;;;;;5077174;28;20489;-78
2023/01/14 09:59:41;;;;;;;2.30;0.90;;;9.40;99.90;;;;;;5077017;28;20404;-78
2023/01/14 10:02:17;;;;;;;3.80;1.13;;;9.50;99.90;;;;;;5078455;28;20555;-78
2023/01/14 10:05:02;;;;;;;2.40;1.00;;;9.50;99.90;;;;;;5080817;28;20424;-78
2023/01/14 10:07:29;;;;;;;4.77;0.93;;;9.60;99.90;;;;;;5098373;28;20430;-78
2023/01/14 10:09:59;;;;;;;2.30;0.80;;;9.60;99.90;;;;;;5098502;28;20992;-78
2023/01/14 10:12:40;;;;;;;1.60;0.90;;;9.60;99.90;;;;;;5096379;28;20412;-78
2023/01/14 10:15:38;;;;;;;2.60;1.30;;;9.60;99.90;;;;;;5097635;28;20415;-78
2023/01/14 10:18:22;;;;;;;3.83;1.10;;;9.70;99.90;;;;;;5093009;28;20464;-78
2023/01/14 10:21:05;;;;;;;1.53;0.87;;;9.70;99.90;;;;;;5077307;28;20478;-78
2023/01/14 10:23:40;;;;;;;4.13;0.80;;;9.80;99.90;;;;;;5078482;28;20464;-78
2023/01/14 10:26:15;;;;;;;4.00;1.10;;;9.80;99.90;;;;;;5078335;28;21035;-78
2023/01/14 10:28:45;;;;;;;2.17;1.00;;;9.80;99.90;;;;;;5076881;28;20423;-77
2023/01/14 10:31:18;;;;;;;12.40;1.50;;;9.80;99.90;;;;;;5079144;28;20466;-78
2023/01/14 10:33:46;;;;;;;2.00;0.93;;;9.80;99.90;;;;;;5078940;28;20412;-77
2023/01/14 10:36:18;;;;;;;2.80;1.07;;;9.60;99.90;;;;;;5110171;28;20415;-79
2023/01/14 10:38:44;;;;;;;4.30;1.47;;;9.60;99.90;;;;;;5080507;28;20433;-78
2023/01/14 10:41:11;;;;;;;2.90;1.10;;;9.50;99.90;;;;;;5083048;28;20416;-78
2023/01/14 10:43:46;;;;;;;3.40;0.90;;;9.30;99.90;;;;;;5077414;28;20817;-78
2023/01/14 10:46:18;;;;;;;1.90;0.83;;;9.20;99.90;;;;;;5073720;28;20393;-79
2023/01/14 10:48:58;;;;;;;6.93;0.90;;;9.10;99.90;;;;;;5073406;28;20392;-79
2023/01/14 10:51:46;;;;;;;3.03;0.80;;;9.00;99.90;;;;;;5074228;28;20491;-78
2023/01/14 10:54:20;;;;;;;3.90;1.30;;;8.90;99.90;;;;;;5073515;28;20412;-78
2023/01/14 10:56:54;;;;;;;1.27;0.90;;;8.80;99.90;;;;;;5076121;28;20440;-78
2023/01/14 10:59:26;;;;;;;1.20;0.80;;;8.70;99.90;;;;;;5076031;28;20416;-78
2023/01/14 11:01:53;;;;;;;5.20;1.70;;;8.70;99.90;;;;;;5074492;28;20423;-78
2023/01/14 11:04:22;;;;;;;1.93;0.87;;;8.70;99.90;;;;;;5081163;28;20411;-78
2023/01/14 11:06:47;;;;;;;1.67;1.27;;;8.60;99.90;;;;;;5090304;28;20436;-78
2023/01/14 11:09:27;;;;;;;3.10;1.00;;;8.70;99.90;;;;;;5073371;28;20406;-79
2023/01/14 11:11:53;;;;;;;2.40;1.27;;;8.70;99.90;;;;;;5073074;28;20178;-78
2023/01/14 11:14:31;;;;;;;2.37;1.03;;;8.70;99.90;;;;;;5074045;28;20403;-79
2023/01/14 11:16:58;;;;;;;12.37;1.40;;;8.70;99.90;;;;;;5086413;28;20289;-80
2023/01/14 11:19:24;;;;;;;3.23;1.07;;;8.70;99.90;;;;;;5097960;28;20486;-79
2023/01/14 11:22:00;;;;;;;1.50;0.70;;;8.80;99.90;;;;;;5098187;28;20474;-79
2023/01/14 11:24:39;;;;;;;1.80;0.93;;;8.80;99.90;;;;;;5097307;28;20406;-79
2023/01/14 11:27:17;;;;;;;1.83;1.10;;;8.80;99.90;;;;;;5096067;28;20458;-77
2023/01/14 11:29:58;;;;;;;3.97;1.07;;;8.80;99.90;;;;;;5090061;28;20839;-75
2023/01/14 11:32:27;;;;;;;3.00;1.03;;;8.90;99.90;;;;;;5076196;28;20503;-79
2023/01/14 11:35:22;;;;;;;7.33;1.00;;;8.90;99.90;;;;;;5076092;28;20427;-78
2023/01/14 11:37:48;;;;;;;2.47;1.10;;;9.00;99.90;;;;;;5077239;28;20511;-79
2023/01/14 11:41:28;;;;;;;1.40;0.90;;;8.90;99.90;;;;;;5076894;28;20412;-79
2023/01/14 11:43:10;;;;;;;1.17;0.77;;;9.00;99.90;;;;;;5099144;28;20562;-81
2023/01/14 11:45:35;;;;;;;2.50;1.33;;;9.00;99.90;;;;;;5107135;28;20423;-79
2023/01/14 11:48:01;;;;;;;1.40;0.80;;;9.00;99.90;;;;;;5107307;28;20216;-78
2023/01/14 11:50:34;;;;;;;1.57;1.27;;;9.00;99.90;;;;;;5095252;28;20166;-79
2023/01/14 11:53:15;;;;;;;6.07;1.10;;;9.00;99.90;;;;;;5092053;28;20174;-78
2023/01/14 11:55:42;;;;;;;1.23;0.83;;;9.00;99.90;;;;;;5076658;28;20408;-78
2023/01/14 11:58:25;;;;;;;7.37;0.97;;;9.10;99.90;;;;;;5075642;28;20428;-79
2023/01/14 12:00:53;;;;;;;2.03;0.90;;;9.10;99.90;;;;;;5077653;28;20396;-78
2023/01/14 12:03:47;;;;;;;1.40;0.90;;;9.10;99.90;;;;;;5091388;28;20455;-79
2023/01/14 12:06:19;;;;;;;1.87;0.83;;;9.10;99.90;;;;;;5079009;28;20404;-79
2023/01/14 12:08:51;;;;;;;1.10;0.80;;;9.00;99.90;;;;;;5079747;28;20404;-78
2023/01/14 12:11:23;;;;;;;5.03;1.10;;;9.10;99.90;;;;;;5080698;28;20472;-78
2023/01/14 12:16:56;;;;;;;2.77;1.13;;;9.10;99.90;;;;;;5079179;28;20480;-78
2023/01/14 12:19:34;;;;;;;2.60;1.30;;;9.10;99.90;;;;;;5078933;28;20404;-78
2023/01/14 12:22:16;;;;;;;1.23;0.83;;;9.10;99.90;;;;;;5078736;28;20407;-78
2023/01/14 12:25:10;;;;;;;3.67;1.00;;;9.10;99.90;;;;;;5077469;28;20408;-79
2023/01/14 12:27:48;;;;;;;1.47;0.70;;;9.10;99.90;;;;;;5079256;28;20424;-78
2023/01/14 12:30:22;;;;;;;1.70;1.10;;;9.10;99.90;;;;;;5078088;28;20458;-78
2023/01/14 12:33:08;;;;;;;3.97;1.10;;;9.00;99.90;;;;;;5078503;28;20415;-78
2023/01/14 12:36:03;;;;;;;1.20;0.80;;;9.00;99.90;;;;;;5071606;28;20441;-79
2023/01/14 12:47:49;;;;;;;2.13;0.70;;;9.10;99.90;;;;;;5089756;28;20575;-78
2023/01/14 12:50:15;;;;;;;1.10;0.70;;;9.10;99.90;;;;;;5077104;28;20439;-78
2023/01/14 12:52:51;;;;;;;1.10;0.70;;;9.10;99.90;;;;;;5076973;28;20518;-78
2023/01/14 12:55:31;;;;;;;1.73;0.70;;;9.20;99.90;;;;;;5077790;28;20470;-79
2023/01/14 12:57:59;;;;;;;2.30;0.80;;;9.10;99.90;;;;;;5110281;28;20436;-78
2023/01/14 13:00:28;;;;;;;2.10;1.40;;;9.20;99.90;;;;;;5090643;28;20415;-78
2023/01/14 13:02:56;;;;;;;2.47;0.63;;;9.20;99.90;;;;;;5098545;28;20494;-78
2023/01/14 13:05:29;;;;;;;1.17;0.70;;;9.20;99.90;;;;;;5097617;28;20490;-78
2023/01/14 13:07:58;;;;;;;1.20;0.70;;;9.30;99.90;;;;;;5099016;28;20427;-78
2023/01/14 13:10:32;;;;;;;1.40;0.67;;;9.30;99.90;;;;;;5098308;28;20400;-78
2023/01/14 13:13:00;;;;;;;1.20;0.70;;;9.40;99.90;;;;;;5094232;28;20508;-78
2023/01/14 13:15:32;;;;;;;1.70;0.70;;;9.50;99.90;;;;;;5075860;28;20504;-78
2023/01/14 13:18:02;;;;;;;1.00;0.60;;;9.50;99.90;;;;;;5078301;28;20435;-78
2023/01/14 13:20:37;;;;;;;1.20;0.70;;;9.50;99.90;;;;;;5078650;28;20970;-78
2023/01/14 13:23:08;;;;;;;1.00;0.50;;;9.50;99.90;;;;;;5078295;28;20516;-78
2023/01/14 13:25:40;;;;;;;1.20;0.80;;;9.60;99.90;;;;;;5077740;28;20388;-78
2023/01/14 13:28:12;;;;;;;1.50;1.00;;;9.60;99.90;;;;;;5076755;28;20474;-78
2023/01/14 13:31:13;;;;;;;1.57;1.27;;;9.50;99.90;;;;;;5076463;28;20964;-78
2023/01/14 13:33:39;;;;;;;1.00;0.60;;;9.70;99.90;;;;;;5077632;28;20515;-78
2023/01/14 13:36:11;;;;;;;1.67;0.90;;;9.70;99.90;;;;;;5088775;28;20466;-78
2023/01/14 13:39:02;;;;;;;1.30;0.80;;;9.70;99.90;;;;;;5097433;28;20431;-78
2023/01/14 13:41:43;;;;;;;1.87;1.27;;;9.70;99.90;;;;;;5097880;28;20495;-78
2023/01/14 13:44:37;;;;;;;2.70;0.97;;;9.70;99.90;;;;;;5097215;28;20482;-78
2023/01/14 13:47:19;;;;;;;1.33;0.60;;;9.80;99.90;;;;;;5093511;28;20443;-78
2023/01/14 13:50:05;;;;;;;1.40;0.70;;;9.80;99.90;;;;;;5077495;28;20864;-78
2023/01/14 13:52:35;;;;;;;1.00;0.50;;;9.80;99.90;;;;;;5077738;28;20406;-78
2023/01/14 13:55:17;;;;;;;2.13;0.90;;;9.90;99.90;;;;;;5110450;28;20401;-78